Coeur D'Alene - Pappy Boyington Field
KCOE : now visible

Airfield :











YOU CAN JOIN US ON...

 
LOGIN :

Register | Disclaimer

   EN    FR    IT 

 









Legend :    VFR   Marginal VFR   IFR   Intensive IFR   Very Intensive IFR
Visi :
Ceiling :
>= 8 km
>= 3000ft
5 to 8 km
1000 to 3000 ft
1500m to 5 km
500 to 1000 ft
800 to 1500m
200 to 500 ft
< 800m
< 200 ft
Symbols :   Thunderstorms  Fog  Heavy snow  Heavy precipitations  Wind > 20 kt







- Airport Elevation : 2320 ft


KCOE - Coeur D'Alene - Pappy Boyington Field

CURRENT METAR :
  • 160556Z AUTO 21004KT 10SM OVC075 15/08 A2975 RMK AO2 SLP079 T01500083 10233 20150 50002

EXPIRED METARs :
  • 160456Z AUTO 26006KT 10SM OVC075 16/08 A2976 RMK AO2 SLP084 T01560083
  • 160356Z AUTO 26010KT 10SM CLR 16/08 A2976 RMK AO2 SLP088 T01610083

TAF KCOE
Valid from the 16 at 06:00 until the 17 at 06:00 UTC


160528Z 1606/1706 26006KT P6SM OVC080
FM161400 16006KT P6SM VCSH SCT030 OVC050
FM162000 27006KT P6SM -SHRA SCT030 OVC070
FM170400 20008KT P6SM SCT050 OVC150
No reported NOTAMs for that airfield.



MET'MAP, your aeronautical weather chart ! - Copyright ORBIFLY December 2007 - Disclaimer

ORBIFLY MET'MAP TEAM :

Programming & Development : Alexandra Zaïnal
Concept & Development : Baudouin d'Aumeries
Co-Development & Prog : Marc-Olivier Méhu
Technical & hardware support : Manuel Goepfert

Contact : metmap@orbifly.com




SOURCES & CREDITS :

   NOAA       Earth
Advisory